Time;durP1;ratioP1;P1;durP2;ratioP2;P2;SDS_P1;SDS_P2;PMS_P1;PMS_P2;Temp;Humidity;BMP_temperature;BMP_pressure;BME280_temperature;BME280_humidity;BME280_pressure;Samples;Min_cycle;Max_cycle;Signal;HPM_P1;HPM_P2
2023/05/09 00:02:10;;;;;;;7.10;3.20;;;;;;;13.11;33.80;100765.97;104321;1254;60539;-61
2023/05/09 00:04:38;;;;;;;;;;;;;;;13.10;33.97;100765.33;104283;1259;73715;-61
2023/05/09 00:07:06;;;;;;;4.00;2.90;;;;;;;13.07;34.52;100765.59;104503;1258;69874;-61
2023/05/09 00:09:33;;;;;;;4.00;2.90;;;;;;;13.01;34.16;100765.27;104339;1272;73044;-61
2023/05/09 00:12:01;;;;;;;3.30;2.90;;;;;;;13.00;34.10;100766.00;104291;1257;60562;-61
2023/05/09 00:14:28;;;;;;;3.00;2.40;;;;;;;12.97;34.13;100767.89;104434;1253;60629;-61
2023/05/09 00:16:58;;;;;;;3.70;2.10;;;;;;;12.96;34.55;100773.02;104472;1253;74583;-61
2023/05/09 00:19:25;;;;;;;2.10;2.00;;;;;;;12.95;34.12;100769.90;104343;1254;70749;-61
2023/05/09 00:21:53;;;;;;;3.70;2.70;;;;;;;12.96;34.34;100769.52;104371;1255;72667;-61
2023/05/09 00:24:19;;;;;;;6.40;2.70;;;;;;;12.95;34.49;100769.20;104278;1251;60595;-61
2023/05/09 00:26:47;;;;;;;3.50;2.70;;;;;;;12.96;34.34;100770.56;104548;1251;60807;-61
2023/05/09 00:29:14;;;;;;;3.10;2.80;;;;;;;12.96;34.10;100771.79;104390;1254;73142;-61
2023/05/09 00:31:41;;;;;;;2.70;2.30;;;;;;;12.94;34.04;100766.76;104286;1256;68914;-60
2023/05/09 00:34:09;;;;;;;3.40;2.90;;;;;;;12.95;34.20;100768.45;104412;1257;73060;-61
2023/05/09 00:36:36;;;;;;;3.20;2.80;;;;;;;12.98;34.49;100763.95;104353;1256;61887;-61
2023/05/09 00:39:04;;;;;;;5.00;2.50;;;;;;;13.00;34.63;100766.55;104400;1257;60549;-60
2023/05/09 00:41:31;;;;;;;3.00;2.60;;;;;;;13.01;34.27;100766.48;104567;1257;76419;-61
2023/05/09 00:43:58;;;;;;;4.10;2.80;;;;;;;13.02;34.18;100768.59;104305;1253;70257;-60
2023/05/09 00:46:25;;;;;;;2.90;2.60;;;;;;;12.97;34.11;100771.23;104475;1266;72898;-61
2023/05/09 00:48:53;;;;;;;3.50;3.20;;;;;;;12.93;34.30;100772.60;104376;1257;60519;-61
2023/05/09 00:51:20;;;;;;;2.90;2.50;;;;;;;12.95;34.53;100771.45;104437;1257;60648;-61
2023/05/09 00:53:47;;;;;;;3.20;2.80;;;;;;;12.96;34.52;100769.85;104332;1266;75333;-61
2023/05/09 00:56:15;;;;;;;3.60;2.60;;;;;;;12.94;34.11;100771.67;104337;1264;70396;-61
2023/05/09 00:58:42;;;;;;;3.00;2.40;;;;;;;12.89;34.75;100773.08;104531;1253;72597;-66
2023/05/09 01:01:10;;;;;;;8.00;2.80;;;;;;;12.86;34.50;100777.92;104406;1259;61097;-61
2023/05/09 01:03:38;;;;;;;3.30;3.00;;;;;;;12.88;34.79;100776.27;104371;1268;60751;-61
2023/05/09 01:06:07;;;;;;;3.90;2.90;;;;;;;12.91;34.52;100774.08;104449;1257;74546;-61
2023/05/09 01:08:44;;;;;;;3.50;2.60;;;;;;;12.94;34.54;100775.20;104450;1260;69494;-61
2023/05/09 01:11:28;;;;;;;3.00;2.70;;;;;;;12.98;34.58;100776.98;104271;1265;72987;-62
2023/05/09 01:14:17;;;;;;;3.40;2.70;;;;;;;12.98;34.56;100776.11;104365;1254;60537;-61
2023/05/09 01:16:53;;;;;;;2.90;2.60;;;;;;;13.00;34.45;100777.11;104396;1258;60649;-61
2023/05/09 01:19:44;;;;;;;3.20;2.50;;;;;;;13.02;34.58;100773.67;104432;1251;75781;-61
2023/05/09 01:22:12;;;;;;;3.40;2.00;;;;;;;13.09;34.62;100775.75;104216;1256;69185;-62
2023/05/09 01:24:46;;;;;;;2.90;2.50;;;;;;;13.11;34.58;100778.67;104228;1271;72674;-62
2023/05/09 01:27:21;;;;;;;2.80;2.50;;;;;;;13.13;34.50;100774.73;104405;1251;60736;-61
2023/05/09 01:29:55;;;;;;;6.10;2.30;;;;;;;13.12;34.60;100775.45;104413;1259;61272;-60
2023/05/09 01:32:27;;;;;;;3.10;2.80;;;;;;;13.11;34.71;100774.43;104468;1259;74399;-61
2023/05/09 01:34:55;;;;;;;2.90;2.60;;;;;;;13.14;34.57;100772.73;104415;1259;70463;-60
2023/05/09 01:37:23;;;;;;;;;;;;;;;13.17;34.71;100773.32;104402;1268;73637;-59
2023/05/09 01:39:52;;;;;;;3.00;2.50;;;;;;;13.20;34.61;100771.66;104529;1251;61053;-61
2023/05/09 01:42:19;;;;;;;4.00;2.40;;;;;;;13.17;34.66;100774.75;104474;1257;60531;-61
2023/05/09 01:44:46;;;;;;;3.30;2.60;;;;;;;13.16;34.45;100771.96;104311;1256;74283;-62
2023/05/09 01:47:15;;;;;;;3.60;2.60;;;;;;;13.14;34.81;100771.53;104383;1258;69923;-61
2023/05/09 01:49:42;;;;;;;3.70;2.90;;;;;;;13.13;34.85;100776.14;104495;1256;73188;-62
2023/05/09 01:52:12;;;;;;;3.30;2.70;;;;;;;13.09;34.56;100771.69;104364;1269;60559;-62
2023/05/09 01:54:39;;;;;;;3.20;2.80;;;;;;;13.07;34.77;100772.10;104359;1258;60735;-62
2023/05/09 01:57:06;;;;;;;6.70;2.90;;;;;;;13.08;35.00;100772.60;104251;1256;73651;-62
2023/05/09 01:59:34;;;;;;;2.90;2.70;;;;;;;13.09;35.16;100770.45;104524;1264;70347;-62
2023/05/09 02:02:02;;;;;;;3.30;2.40;;;;;;;13.11;35.33;100773.02;104318;1259;73502;-62
2023/05/09 02:04:29;;;;;;;6.20;2.70;;;;;;;13.11;35.09;100773.70;104388;1265;60585;-62
2023/05/09 02:06:56;;;;;;;3.10;2.40;;;;;;;13.13;35.00;100771.38;104330;1258;61618;-62
2023/05/09 02:09:23;;;;;;;2.80;2.60;;;;;;;13.13;34.94;100776.10;104499;1257;73629;-61
2023/05/09 02:11:50;;;;;;;3.50;2.30;;;;;;;13.15;34.81;100773.42;104415;1253;69996;-62
2023/05/09 02:14:18;;;;;;;2.70;2.50;;;;;;;13.14;34.58;100776.09;104293;1266;74994;-65
2023/05/09 02:16:45;;;;;;;6.40;3.10;;;;;;;13.12;34.70;100776.14;104259;1259;60519;-61
2023/05/09 02:19:12;;;;;;;3.20;2.70;;;;;;;13.13;34.64;100774.34;104392;1253;60658;-65
2023/05/09 02:21:40;;;;;;;2.70;2.40;;;;;;;13.10;34.99;100776.56;104336;1269;73935;-62
2023/05/09 02:24:07;;;;;;;2.90;2.60;;;;;;;13.06;35.05;100775.47;104344;1266;70010;-61
2023/05/09 02:26:34;;;;;;;2.80;2.40;;;;;;;13.09;35.33;100779.42;104271;1261;73266;-61
2023/05/09 02:29:02;;;;;;;2.50;2.30;;;;;;;13.09;35.14;100778.71;104210;1254;60774;-61
2023/05/09 02:31:29;;;;;;;;;;;;;;;13.08;35.11;100780.52;104371;1257;61970;-62
2023/05/09 02:33:58;;;;;;;2.60;2.10;;;;;;;13.05;35.10;100783.96;104357;1271;73666;-62
2023/05/09 02:36:25;;;;;;;2.60;2.20;;;;;;;13.00;35.04;100784.14;104578;1252;70402;-61
2023/05/09 02:38:52;;;;;;;4.80;3.00;;;;;;;13.05;35.24;100785.36;104403;1269;73762;-61
2023/05/09 02:41:20;;;;;;;3.00;2.60;;;;;;;13.08;35.35;100782.64;104373;1259;60582;-61
2023/05/09 02:43:47;;;;;;;3.10;2.30;;;;;;;13.10;35.18;100781.16;105055;1252;60382;-60
2023/05/09 02:46:14;;;;;;;3.60;3.10;;;;;;;13.12;35.19;100782.51;108468;1252;76359;-60
2023/05/09 02:48:42;;;;;;;4.90;2.40;;;;;;;13.14;35.30;100782.80;105871;1253;69968;-60
2023/05/09 02:51:09;;;;;;;3.10;2.60;;;;;;;13.12;35.04;100782.68;104677;1253;73259;-60
2023/05/09 02:53:36;;;;;;;3.20;2.10;;;;;;;13.14;35.34;100780.85;104485;1257;60590;-62
2023/05/09 02:56:03;;;;;;;3.60;2.20;;;;;;;13.15;35.37;100779.92;104525;1257;60449;-59
2023/05/09 02:58:30;;;;;;;4.00;2.50;;;;;;;13.15;35.46;100780.27;104724;1256;75075;-60
2023/05/09 03:00:57;;;;;;;5.20;2.40;;;;;;;13.15;35.20;100780.63;104419;1251;71926;-59
2023/05/09 03:03:25;;;;;;;6.00;2.40;;;;;;;13.17;35.35;100783.05;104318;1254;72305;-59
2023/05/09 03:05:52;;;;;;;2.50;2.30;;;;;;;13.19;35.27;100782.58;104711;1258;60600;-59
2023/05/09 03:08:19;;;;;;;5.20;2.50;;;;;;;13.19;35.41;100784.72;104360;1251;60557;-60
2023/05/09 03:10:46;;;;;;;2.50;2.30;;;;;;;13.20;35.57;100782.92;104299;1253;74914;-59
2023/05/09 03:13:14;;;;;;;3.80;2.30;;;;;;;13.23;35.68;100785.11;104541;1257;70324;-60
2023/05/09 03:15:41;;;;;;;3.90;2.50;;;;;;;13.26;35.59;100787.62;104597;1254;73190;-59
2023/05/09 03:18:11;;;;;;;4.60;2.70;;;;;;;13.31;35.61;100790.48;104500;1256;60542;-60
2023/05/09 03:20:39;;;;;;;6.60;2.50;;;;;;;13.36;35.45;100793.48;104291;1261;62725;-59
2023/05/09 03:23:06;;;;;;;2.60;2.40;;;;;;;13.36;35.31;100792.75;104341;1254;74383;-60
2023/05/09 03:25:33;;;;;;;2.90;2.50;;;;;;;13.43;35.66;100797.46;104368;1260;69996;-59
2023/05/09 03:28:00;;;;;;;3.10;2.60;;;;;;;13.47;35.77;100801.17;104325;1269;72638;-60
2023/05/09 03:30:28;;;;;;;2.60;2.30;;;;;;;13.48;35.91;100801.14;104334;1256;60401;-59
2023/05/09 03:32:55;;;;;;;2.60;2.40;;;;;;;13.31;36.25;100801.70;104286;1253;60545;-59
2023/05/09 03:35:22;;;;;;;3.10;2.20;;;;;;;13.22;36.85;100802.41;104354;1258;74288;-59
2023/05/09 03:37:50;;;;;;;2.60;2.40;;;;;;;13.66;35.81;100802.95;104369;1256;72001;-59
2023/05/09 03:40:17;;;;;;;7.80;2.30;;;;;;;13.74;35.52;100799.82;104353;1254;72576;-61
2023/05/09 03:42:51;;;;;;;3.60;2.60;;;;;;;13.81;35.43;100797.27;104333;1257;60544;-59
2023/05/09 03:45:19;;;;;;;5.90;2.70;;;;;;;13.82;35.57;100799.51;104377;1257;60686;-60
2023/05/09 03:47:46;;;;;;;3.10;2.80;;;;;;;13.83;35.61;100802.50;104255;1256;73008;-60
2023/05/09 03:50:14;;;;;;;;;;;;;;;13.87;35.50;100799.52;104504;1262;69152;-59
2023/05/09 03:52:42;;;;;;;2.80;2.20;;;;;;;13.88;35.69;100804.77;104353;1259;75073;-60
2023/05/09 03:55:09;;;;;;;;;;;;;;;13.81;35.38;100808.02;104271;1255;60657;-59
2023/05/09 03:57:37;;;;;;;2.50;2.20;;;;;;;13.79;35.55;100810.02;104349;1256;60488;-59
2023/05/09 04:00:06;;;;;;;3.20;2.20;;;;;;;13.74;35.45;100811.13;104386;1271;73639;-60
2023/05/09 04:02:40;;;;;;;2.30;2.10;;;;;;;13.76;35.27;100815.07;104333;1257;70168;-60
2023/05/09 04:05:12;;;;;;;2.40;2.20;;;;;;;13.78;35.35;100812.37;104287;1257;72659;-61
2023/05/09 04:07:40;;;;;;;4.00;2.70;;;;;;;13.82;35.51;100816.95;104286;1254;61224;-60
2023/05/09 04:10:08;;;;;;;2.70;2.40;;;;;;;13.87;35.25;100816.59;104328;1254;60846;-60
2023/05/09 04:12:35;;;;;;;3.20;2.20;;;;;;;13.89;35.17;100817.08;104362;1258;74487;-59
2023/05/09 04:15:02;;;;;;;4.90;3.20;;;;;;;13.97;35.10;100817.83;104346;1253;72593;-62
2023/05/09 04:17:30;;;;;;;1.90;1.70;;;;;;;14.04;35.21;100820.40;104400;1259;72284;-60
2023/05/09 04:19:57;;;;;;;7.20;2.40;;;;;;;14.12;34.79;100824.81;104378;1257;60436;-61
2023/05/09 04:22:24;;;;;;;2.00;1.90;;;;;;;14.19;34.83;100825.95;104337;1268;60334;-60
2023/05/09 04:24:52;;;;;;;3.20;2.60;;;;;;;14.29;34.71;100824.87;104338;1259;74512;-60
2023/05/09 04:27:19;;;;;;;2.90;2.20;;;;;;;14.44;34.43;100825.16;104334;1258;70011;-60
2023/05/09 04:29:48;;;;;;;6.20;2.30;;;;;;;14.52;34.18;100820.77;104316;1260;72554;-60
2023/05/09 04:32:15;;;;;;;4.20;2.20;;;;;;;14.62;33.98;100824.99;104497;1254;60578;-61
2023/05/09 04:34:42;;;;;;;2.20;2.00;;;;;;;14.70;34.03;100826.42;104450;1256;62479;-60
2023/05/09 04:37:14;;;;;;;2.50;2.30;;;;;;;14.82;33.97;100827.19;104523;1257;73382;-60
2023/05/09 04:39:42;;;;;;;2.30;1.80;;;;;;;14.89;33.97;100825.28;104434;1253;69929;-60
2023/05/09 04:42:17;;;;;;;3.60;2.30;;;;;;;14.96;34.38;100824.09;104775;1259;72708;-60
2023/05/09 04:44:44;;;;;;;2.20;2.00;;;;;;;15.06;34.13;100825.47;104371;1267;60474;-60
2023/05/09 04:47:11;;;;;;;2.20;2.00;;;;;;;15.15;34.00;100823.49;104478;1267;62058;-63
2023/05/09 04:49:39;;;;;;;2.90;1.90;;;;;;;15.26;34.02;100826.92;104721;1253;74407;-61
2023/05/09 04:52:07;;;;;;;2.50;2.10;;;;;;;15.34;33.92;100828.48;104650;1256;70923;-61
2023/05/09 04:54:34;;;;;;;2.30;2.10;;;;;;;15.48;33.92;100828.96;104631;1256;72043;-62
2023/05/09 04:57:05;;;;;;;2.20;2.00;;;;;;;15.57;33.76;100828.20;104339;1256;61273;-61
2023/05/09 04:59:45;;;;;;;2.40;2.10;;;;;;;15.63;33.49;100830.24;104339;1254;60606;-62
2023/05/09 05:02:13;;;;;;;2.40;2.10;;;;;;;15.65;33.28;100829.42;104279;1257;73351;-61
2023/05/09 05:04:40;;;;;;;2.80;2.00;;;;;;;15.74;33.40;100833.62;104417;1268;70311;-60
2023/05/09 05:07:07;;;;;;;2.40;1.80;;;;;;;15.82;33.49;100835.23;104362;1258;72713;-61
2023/05/09 05:09:35;;;;;;;2.90;2.00;;;;;;;15.94;33.20;100837.52;104777;1256;60602;-61
2023/05/09 05:12:05;;;;;;;2.80;2.10;;;;;;;15.98;33.18;100835.54;104566;1253;61265;-61
2023/05/09 05:14:36;;;;;;;2.90;2.20;;;;;;;16.01;32.92;100832.92;104504;1258;74534;-61
2023/05/09 05:17:03;;;;;;;3.60;2.40;;;;;;;16.02;32.82;100830.27;104470;1265;69674;-61
2023/05/09 05:19:31;;;;;;;2.30;2.10;;;;;;;16.00;32.78;100832.81;104725;1259;72773;-61
2023/05/09 05:21:59;;;;;;;2.80;2.30;;;;;;;16.01;32.68;100831.16;104247;1253;61133;-61
2023/05/09 05:24:28;;;;;;;2.60;2.10;;;;;;;16.04;32.63;100832.45;104390;1256;60805;-62
2023/05/09 05:26:55;;;;;;;2.20;1.90;;;;;;;16.05;32.50;100830.66;104378;1264;72818;-62
2023/05/09 05:29:24;;;;;;;4.00;1.70;;;;;;;16.02;32.33;100830.45;104356;1268;70297;-61
2023/05/09 05:31:51;;;;;;;5.40;2.60;;;;;;;16.05;32.32;100830.99;104279;1268;72729;-62
2023/05/09 05:34:19;;;;;;;3.40;2.20;;;;;;;16.09;32.36;100832.19;104301;1254;60911;-62
2023/05/09 05:36:47;;;;;;;3.20;2.10;;;;;;;16.14;32.08;100829.30;104347;1257;60682;-61
2023/05/09 05:39:15;;;;;;;2.80;2.50;;;;;;;16.21;31.94;100827.77;104406;1255;74341;-62
2023/05/09 05:41:41;;;;;;;3.80;2.50;;;;;;;16.28;32.05;100829.73;104393;1258;69964;-62
2023/05/09 05:44:09;;;;;;;2.50;1.90;;;;;;;16.32;31.89;100831.62;104635;1257;75207;-61
2023/05/09 05:46:36;;;;;;;2.50;2.20;;;;;;;16.35;32.02;100830.09;104321;1259;60470;-61
2023/05/09 05:49:04;;;;;;;3.70;2.10;;;;;;;16.40;31.90;100832.70;104514;1259;60691;-61
2023/05/09 05:51:32;;;;;;;2.30;2.10;;;;;;;16.49;31.97;100829.08;104424;1266;73948;-61
2023/05/09 05:53:59;;;;;;;3.10;2.30;;;;;;;16.64;31.76;100833.31;104542;1258;69761;-63
2023/05/09 05:56:27;;;;;;;2.90;2.10;;;;;;;16.76;31.54;100830.03;104395;1256;73825;-61
2023/05/09 05:58:55;;;;;;;2.50;2.10;;;;;;;16.85;31.37;100827.66;104058;1252;290282;-61
2023/05/09 06:02:21;;;;;;;2.40;2.20;;;;;;;16.11;33.41;100829.43;101038;1305;615822;-62
2023/05/09 06:04:48;;;;;;;;;;;;;;;17.13;31.34;100826.29;104362;1263;59412;-61
2023/05/09 06:07:15;;;;;;;3.70;2.40;;;;;;;15.73;32.78;100835.94;104319;1262;60205;-61
2023/05/09 06:09:42;;;;;;;2.50;2.10;;;;;;;15.53;33.71;100836.66;104235;1263;72383;-61
2023/05/09 06:12:10;;;;;;;3.40;2.30;;;;;;;15.38;34.02;100836.30;104336;1259;70020;-61
2023/05/09 06:14:38;;;;;;;6.00;2.90;;;;;;;15.78;33.37;100837.23;104213;1264;270718;-62
2023/05/09 06:17:05;;;;;;;3.60;2.50;;;;;;;17.22;31.58;100831.30;104951;1253;59351;-62
2023/05/09 06:19:32;;;;;;;4.00;2.50;;;;;;;17.48;30.80;100829.95;104590;1269;59368;-63
2023/05/09 06:21:59;;;;;;;2.50;2.00;;;;;;;17.56;30.84;100828.31;104820;1260;72468;-61
2023/05/09 06:24:26;;;;;;;3.00;2.40;;;;;;;17.50;30.40;100829.64;104510;1254;69069;-62
2023/05/09 06:27:03;;;;;;;3.40;1.90;;;;;;;17.32;30.78;100827.20;104960;1259;72010;-63
2023/05/09 06:29:31;;;;;;;3.40;1.80;;;;;;;17.02;31.49;100830.38;104834;1255;61145;-62
2023/05/09 06:31:58;;;;;;;2.20;2.00;;;;;;;17.53;31.09;100828.98;104832;1257;59637;-62
2023/05/09 06:34:25;;;;;;;2.60;1.70;;;;;;;17.37;30.90;100828.05;104700;1253;73086;-62
2023/05/09 06:36:52;;;;;;;1.90;1.70;;;;;;;17.18;31.18;100833.79;105004;1253;69129;-62
2023/05/09 06:39:19;;;;;;;2.20;1.80;;;;;;;17.31;30.88;100831.75;104886;1254;71709;-64
2023/05/09 06:41:46;;;;;;;4.00;1.80;;;;;;;17.40;30.77;100829.29;104869;1257;59755;-61
2023/05/09 06:44:19;;;;;;;3.20;1.90;;;;;;;17.50;30.52;100826.14;104488;1258;60313;-63
2023/05/09 06:46:46;;;;;;;4.00;1.90;;;;;;;17.57;30.88;100824.34;104890;1254;72587;-61
2023/05/09 06:49:13;;;;;;;1.80;1.70;;;;;;;17.69;30.63;100821.41;106292;1255;69947;-68
2023/05/09 06:51:40;;;;;;;1.90;1.80;;;;;;;17.75;30.84;100819.66;104935;1254;72763;-63
2023/05/09 06:54:07;;;;;;;1.70;1.60;;;;;;;18.33;30.18;100821.96;104843;1260;59836;-62
2023/05/09 06:56:34;;;;;;;4.30;2.10;;;;;;;18.66;29.62;100817.80;104488;1255;59637;-62
2023/05/09 06:59:01;;;;;;;2.80;2.00;;;;;;;18.73;29.37;100815.64;104796;1262;72234;-62
2023/05/09 07:01:28;;;;;;;1.70;1.60;;;;;;;18.84;29.45;100815.16;104532;1261;69049;-63
2023/05/09 07:03:55;;;;;;;2.20;1.80;;;;;;;18.96;29.06;100812.91;105117;1255;72130;-62
2023/05/09 07:06:22;;;;;;;2.90;1.70;;;;;;;19.04;28.93;100804.59;104748;1253;60449;-63
2023/05/09 07:08:49;;;;;;;3.30;1.90;;;;;;;19.09;28.91;100803.58;104696;1253;60165;-63
2023/05/09 07:11:16;;;;;;;2.10;1.50;;;;;;;19.10;28.81;100799.62;104608;1256;74571;-63
2023/05/09 07:13:43;;;;;;;1.60;1.30;;;;;;;19.25;28.55;100797.27;104586;1254;69474;-62
2023/05/09 07:16:10;;;;;;;4.60;1.50;;;;;;;19.36;28.60;100797.70;104912;1254;71860;-63
2023/05/09 07:18:39;;;;;;;1.10;1.10;;;;;;;19.45;28.45;100793.02;104581;1253;60444;-62
2023/05/09 07:21:06;;;;;;;2.90;1.50;;;;;;;19.53;28.56;100787.92;104625;1257;60772;-63
2023/05/09 07:23:34;;;;;;;1.90;1.20;;;;;;;19.58;28.41;100788.33;104801;1254;72330;-63
2023/05/09 07:26:00;;;;;;;1.60;1.30;;;;;;;19.39;28.44;100787.70;104530;1270;68920;-62
2023/05/09 07:28:28;;;;;;;1.60;1.50;;;;;;;19.59;27.88;100788.13;104657;1256;71545;-63
2023/05/09 07:30:55;;;;;;;1.90;1.50;;;;;;;19.65;27.81;100789.14;104627;1258;60180;-64
2023/05/09 07:33:23;;;;;;;1.80;1.40;;;;;;;19.66;27.68;100784.85;104386;1257;59762;-62
2023/05/09 07:35:51;;;;;;;1.80;1.50;;;;;;;19.64;27.60;100778.33;105258;1254;73365;-61
2023/05/09 07:38:18;;;;;;;1.20;1.10;;;;;;;19.78;27.78;100767.20;104460;1253;69586;-62
2023/05/09 07:40:45;;;;;;;1.60;1.40;;;;;;;19.87;27.80;100763.94;104650;1253;72052;-62
2023/05/09 07:43:13;;;;;;;1.90;1.50;;;;;;;19.92;27.36;100763.27;104577;1257;61199;-63
2023/05/09 07:45:41;;;;;;;5.50;1.40;;;;;;;19.90;26.93;100757.02;104612;1253;59740;-61
2023/05/09 07:48:08;;;;;;;2.40;1.30;;;;;;;20.00;26.86;100767.24;104572;1254;73169;-62
2023/05/09 07:50:35;;;;;;;2.70;1.20;;;;;;;20.12;26.48;100763.39;104633;1254;70021;-62
2023/05/09 07:53:02;;;;;;;3.80;1.10;;;;;;;20.22;26.07;100751.58;104522;1256;73698;-64
2023/05/09 07:55:29;;;;;;;2.20;0.90;;;;;;;20.34;26.13;100752.73;104688;1255;60828;-62
2023/05/09 07:57:56;;;;;;;2.40;1.20;;;;;;;20.52;25.95;100748.84;104854;1253;59766;-64
2023/05/09 08:00:23;;;;;;;2.40;1.10;;;;;;;20.60;25.50;100749.91;104650;1257;72788;-63
2023/05/09 08:02:51;;;;;;;2.40;1.10;;;;;;;20.62;25.44;100747.70;104515;1269;69753;-63
2023/05/09 08:05:19;;;;;;;;;;;;;;;20.53;25.67;100743.30;104291;1257;71479;-64
2023/05/09 08:07:46;;;;;;;1.30;0.90;;;;;;;20.50;25.65;100735.65;104318;1253;59856;-63
2023/05/09 08:10:12;;;;;;;1.20;1.10;;;;;;;20.54;25.75;100732.67;104592;1254;60426;-63
2023/05/09 08:12:40;;;;;;;1.70;1.10;;;;;;;20.77;25.56;100727.77;104803;1261;73257;-63
2023/05/09 08:15:07;;;;;;;3.50;1.00;;;;;;;20.98;25.45;100730.96;104792;1256;69706;-65
2023/05/09 08:17:34;;;;;;;1.40;1.30;;;;;;;21.02;24.76;100731.76;104559;1262;73574;-64
2023/05/09 08:20:04;;;;;;;1.00;1.00;;;;;;;21.04;24.75;100734.52;104262;1254;60712;-65
2023/05/09 08:22:31;;;;;;;0.90;0.90;;;;;;;21.08;24.87;100734.02;104362;1257;63259;-64
2023/05/09 08:24:58;;;;;;;4.40;1.30;;;;;;;21.17;23.95;100733.42;104550;1259;72866;-64
2023/05/09 08:27:25;;;;;;;4.00;0.90;;;;;;;21.37;23.50;100726.52;104808;1260;68493;-64
2023/05/09 08:29:53;;;;;;;1.80;1.10;;;;;;;21.36;23.75;100724.56;104312;1258;73141;-64
2023/05/09 08:32:21;;;;;;;1.40;1.20;;;;;;;21.26;23.02;100732.44;104277;1273;59827;-64
2023/05/09 08:34:48;;;;;;;4.40;1.00;;;;;;;21.18;23.67;100731.55;104437;1255;59712;-64
2023/05/09 08:37:15;;;;;;;1.10;0.90;;;;;;;21.15;23.54;100732.27;104518;1260;72024;-64
2023/05/09 08:39:42;;;;;;;2.10;0.90;;;;;;;21.14;23.78;100728.77;104701;1255;71309;-65
2023/05/09 08:42:09;;;;;;;2.40;1.30;;;;;;;21.24;24.25;100724.92;104655;1267;72372;-64
2023/05/09 08:44:37;;;;;;;1.40;0.90;;;;;;;21.32;24.07;100723.81;104462;1259;59929;-63
2023/05/09 08:47:04;;;;;;;2.10;1.20;;;;;;;21.38;23.79;100723.03;104534;1257;60467;-65
2023/05/09 08:49:32;;;;;;;0.90;0.80;;;;;;;21.44;23.72;100721.92;104922;1255;73295;-65
2023/05/09 08:51:59;;;;;;;2.10;1.10;;;;;;;21.47;23.81;100724.91;104547;1254;69498;-63
2023/05/09 08:54:25;;;;;;;2.70;1.50;;;;;;;21.43;23.75;100728.26;104475;1256;73788;-64
2023/05/09 08:56:53;;;;;;;2.00;1.10;;;;;;;21.42;23.48;100724.54;104224;1257;59793;-64
2023/05/09 08:59:22;;;;;;;1.10;1.00;;;;;;;21.48;23.53;100721.98;104390;1254;59861;-63
2023/05/09 09:01:49;;;;;;;1.00;0.90;;;;;;;21.59;23.29;100718.19;104500;1265;72830;-67
2023/05/09 09:04:16;;;;;;;2.30;1.20;;;;;;;21.10;23.74;100718.89;104674;1258;69586;-63
2023/05/09 09:06:43;;;;;;;3.40;1.10;;;;;;;21.42;23.52;100709.21;104351;1270;73015;-63
2023/05/09 09:09:11;;;;;;;2.10;1.30;;;;;;;20.96;23.40;100715.16;104761;1264;59911;-65
2023/05/09 09:11:38;;;;;;;3.70;1.30;;;;;;;21.04;23.41;100715.91;104421;1258;59672;-67
2023/05/09 09:14:11;;;;;;;1.00;1.00;;;;;;;20.84;23.28;100721.98;104251;1261;73919;-66
2023/05/09 09:16:42;;;;;;;1.60;1.00;;;;;;;20.91;23.54;100722.39;104217;1259;69106;-65
2023/05/09 09:19:12;;;;;;;2.90;1.10;;;;;;;20.92;23.30;100716.77;104436;1256;71950;-64
2023/05/09 09:21:41;;;;;;;1.80;1.10;;;;;;;20.23;23.98;100721.77;104362;1253;59762;-69
2023/05/09 09:24:08;;;;;;;2.30;0.90;;;;;;;20.90;23.25;100713.20;104322;1270;59751;-67
2023/05/09 09:26:44;;;;;;;4.20;0.90;;;;;;;21.13;23.41;100705.89;104508;1257;73265;-67
2023/05/09 09:29:12;;;;;;;3.60;1.30;;;;;;;20.66;24.10;100715.53;104540;1259;70550;-67
2023/05/09 09:31:39;;;;;;;;;;;;;;;21.06;23.43;100699.79;104509;1255;71933;-65
2023/05/09 09:34:06;;;;;;;;;;;;;;;21.28;22.86;100701.27;104371;1257;59784;-68
2023/05/09 09:36:35;;;;;;;1.00;0.80;;;;;;;20.91;22.73;100699.20;104239;1259;59673;-64
2023/05/09 09:39:03;;;;;;;4.20;1.20;;;;;;;21.43;23.13;100704.48;104589;1256;73131;-67
2023/05/09 09:41:35;;;;;;;5.50;1.00;;;;;;;21.66;22.80;100706.61;104324;1254;70780;-67
2023/05/09 09:44:07;;;;;;;1.90;1.30;;;;;;;21.77;22.59;100702.92;104887;1256;71535;-65
2023/05/09 09:46:46;;;;;;;1.10;0.80;;;;;;;21.46;22.84;100700.36;104519;1254;60290;-64
2023/05/09 09:49:14;;;;;;;1.40;1.00;;;;;;;21.23;23.08;100696.64;104596;1257;60387;-68
2023/05/09 09:51:42;;;;;;;1.10;1.00;;;;;;;21.20;22.94;100695.80;104687;1256;72152;-66
2023/05/09 09:54:10;;;;;;;2.30;1.10;;;;;;;20.59;23.93;100696.02;104721;1262;69112;-64
2023/05/09 09:56:41;;;;;;;1.70;1.30;;;;;;;21.27;23.25;100696.77;104893;1255;74385;-65
2023/05/09 09:59:10;;;;;;;2.90;1.00;;;;;;;22.27;21.84;100696.05;104572;1256;60736;-65
2023/05/09 10:02:11;;;;;;;1.40;1.30;;;;;;;22.31;21.69;100696.52;105121;1258;60403;-64
2023/05/09 10:04:42;;;;;;;2.70;1.30;;;;;;;22.09;21.29;100702.59;104579;1256;72665;-64
2023/05/09 10:07:09;;;;;;;2.00;1.00;;;;;;;20.43;22.77;100707.75;104760;1255;71500;-64
2023/05/09 10:09:42;;;;;;;3.20;1.10;;;;;;;19.91;23.52;100703.56;104746;1255;73935;-64
2023/05/09 10:12:09;;;;;;;1.40;1.10;;;;;;;19.96;23.47;100704.46;104748;1258;60572;-65
2023/05/09 10:14:37;;;;;;;1.10;1.00;;;;;;;19.90;24.15;100706.44;104756;1253;61080;-63
2023/05/09 10:17:04;;;;;;;2.40;1.00;;;;;;;20.00;24.26;100702.64;104376;1258;73467;-63
2023/05/09 10:19:32;;;;;;;1.70;1.10;;;;;;;20.41;23.67;100702.56;104544;1256;68684;-66
2023/05/09 10:22:05;;;;;;;1.20;0.80;;;;;;;20.45;23.79;100701.64;104498;1267;73878;-65
2023/05/09 10:24:41;;;;;;;2.00;0.90;;;;;;;20.43;23.45;100698.16;105023;1255;60691;-64
2023/05/09 10:27:09;;;;;;;1.40;1.10;;;;;;;20.66;23.50;100698.38;104669;1258;60559;-65
2023/05/09 10:29:40;;;;;;;1.00;0.90;;;;;;;20.96;23.12;100694.43;104506;1255;74395;-67
2023/05/09 10:32:12;;;;;;;1.90;0.90;;;;;;;20.76;23.19;100693.80;104387;1254;68943;-65
2023/05/09 10:34:39;;;;;;;0.90;0.90;;;;;;;21.67;22.09;100695.35;104532;1257;72260;-62
2023/05/09 10:37:07;;;;;;;1.90;1.10;;;;;;;22.30;21.52;100686.40;104523;1254;60664;-63
2023/05/09 10:39:35;;;;;;;2.70;1.10;;;;;;;22.18;21.25;100681.54;104648;1256;60759;-62
2023/05/09 10:42:02;;;;;;;1.30;0.90;;;;;;;20.88;22.02;100682.61;104434;1270;74095;-62
2023/05/09 10:44:29;;;;;;;1.50;1.10;;;;;;;20.01;23.65;100684.37;104407;1256;69824;-64
2023/05/09 10:46:56;;;;;;;2.10;1.20;;;;;;;20.07;23.75;100677.95;104202;1267;72887;-63
2023/05/09 10:49:23;;;;;;;1.10;1.00;;;;;;;21.08;23.18;100666.70;104119;1263;60570;-64
2023/05/09 10:51:51;;;;;;;2.50;1.00;;;;;;;21.55;22.44;100664.02;104334;1271;61257;-64
2023/05/09 10:54:28;;;;;;;1.10;1.10;;;;;;;22.47;21.38;100662.91;104235;1267;73076;-64
2023/05/09 10:56:57;;;;;;;0.90;0.90;;;;;;;22.84;21.21;100651.48;104255;1270;68871;-62
2023/05/09 10:59:45;;;;;;;1.10;1.00;;;;;;;22.99;20.88;100656.95;104275;1257;71673;-63
2023/05/09 11:02:13;;;;;;;1.40;1.10;;;;;;;22.95;20.41;100647.95;104298;1265;60514;-62
2023/05/09 11:04:40;;;;;;;1.40;1.30;;;;;;;22.89;20.46;100651.83;104376;1266;59976;-63
2023/05/09 11:07:28;;;;;;;2.30;0.90;;;;;;;22.86;20.60;100653.71;104266;1263;74125;-63
2023/05/09 11:10:09;;;;;;;2.40;1.00;;;;;;;21.96;21.00;100653.28;104241;1268;69441;-62
2023/05/09 11:12:58;;;;;;;3.80;1.00;;;;;;;20.81;22.46;100651.43;104623;1264;72806;-63
2023/05/09 11:15:28;;;;;;;3.90;1.30;;;;;;;20.54;23.01;100650.09;104667;1260;60561;-63
2023/05/09 11:18:11;;;;;;;1.30;1.20;;;;;;;20.48;23.05;100657.79;104683;1257;60438;-63
2023/05/09 11:20:42;;;;;;;1.40;1.00;;;;;;;21.11;22.18;100656.48;104716;1255;73430;-64
2023/05/09 11:23:10;;;;;;;1.60;1.20;;;;;;;20.61;21.87;100657.59;104560;1256;69154;-62
2023/05/09 11:25:40;;;;;;;2.40;1.00;;;;;;;20.36;21.98;100655.58;104965;1256;72871;-61
2023/05/09 11:28:07;;;;;;;0.80;0.80;;;;;;;20.65;22.03;100654.16;104301;1258;60695;-69